Terminal Aerodrome Forecast
Issued by NWS Louisville, KY

Home | Current Version | Previous Version | Text Only | Print | Product List | Glossary On
Versions: 1 2 3 4 5 6 7 8 9 10 11 12 13
616
FTUS43 KLMK 082320
TAFBWG
TAF
KBWG 082320Z 0900/0924 30009G20KT 3SM -SHSN BR BKN015 OVC025
      TEMPO 0900/0901 1SM -SN BR BKN009 OVC025
     FM090200 29007KT P6SM VCSH OVC022
     FM091500 28008KT P6SM VCSH OVC024
     FM091800 29008G18KT 5SM -SHSN OVC025=

USA.gov is the U.S. government's official web portal to all federal, state and local government web resources and services.